Portada
METAR-TAF:

METAR-TAF

Aeroports :

Bridgeport, Califòrnia, Estats Units d'Amèrica

latitud: 38-15-45N, longitud: 119-13-33W, altitud: 1973 m

Observació

L'informe es va fer fa 36 minuts, a les 07:52 UTC
Vent 6 kt amb direcció variable
Temperatura 7°C
Humitat 57%
Pressió 1020 hPa
Visibilitat: 16.1 km
Cel ennuvolat a una alçada de 5000 ft
Cel cobert a una alçada de 6000 ft

METAR: KBAN 260752Z AUTO VRB06KT 10SM BKN050 OVC060 07/M01 A3013 RMK AO2 SLP164 T00671011 401391039 $

Hora: 00:28 (08:28 UTC)


TAF: manca

Observacions i pronòstics meteorològics de més de 4000 aeroports (METAR i TAF).

Les estacions disponibles són els punts grocs i vermells al mapa.

Posi el ratolí al punt desitjat per veure el nom de l'estació.

Feu clic per veure les observacions i els pronòstics meteorològics.

Per canviar el mapa: feu clic els botons verds amb una creu de color negre per apropar; al botó verd amb un guió per allunyar la imatge; o en les fletxes verdes per a mapes adjacents.


METAR-TAF: